sensor_id;sensor_type;location;lat;lon;timestamp;P1;durP1;ratioP1;P2;durP2;ratioP2
7027;SDS011;3555;53.248;10.336;2022-12-29T00:02:03;6.93;;;3.93;;
7027;SDS011;3555;53.248;10.336;2022-12-29T00:04:30;4.57;;;3.30;;
7027;SDS011;3555;53.248;10.336;2022-12-29T00:06:57;6.03;;;3.60;;
7027;SDS011;3555;53.248;10.336;2022-12-29T00:09:24;4.10;;;3.10;;
7027;SDS011;3555;53.248;10.336;2022-12-29T00:11:52;6.47;;;3.83;;
7027;SDS011;3555;53.248;10.336;2022-12-29T00:14:20;5.20;;;3.63;;
7027;SDS011;3555;53.248;10.336;2022-12-29T00:17:04;5.67;;;3.80;;
7027;SDS011;3555;53.248;10.336;2022-12-29T00:19:31;5.30;;;3.93;;
7027;SDS011;3555;53.248;10.336;2022-12-29T00:22:16;6.27;;;4.00;;
7027;SDS011;3555;53.248;10.336;2022-12-29T00:25:00;5.23;;;3.67;;
7027;SDS011;3555;53.248;10.336;2022-12-29T00:27:45;4.70;;;3.47;;
7027;SDS011;3555;53.248;10.336;2022-12-29T00:30:30;5.77;;;3.87;;
7027;SDS011;3555;53.248;10.336;2022-12-29T00:33:16;7.50;;;4.73;;
7027;SDS011;3555;53.248;10.336;2022-12-29T00:36:02;4.53;;;3.50;;
7027;SDS011;3555;53.248;10.336;2022-12-29T00:38:31;4.50;;;3.87;;
7027;SDS011;3555;53.248;10.336;2022-12-29T00:41:18;5.23;;;4.10;;
7027;SDS011;3555;53.248;10.336;2022-12-29T00:44:02;7.20;;;5.00;;
7027;SDS011;3555;53.248;10.336;2022-12-29T00:46:36;5.10;;;3.90;;
7027;SDS011;3555;53.248;10.336;2022-12-29T00:49:04;6.53;;;3.77;;
7027;SDS011;3555;53.248;10.336;2022-12-29T00:51:49;6.80;;;3.70;;
7027;SDS011;3555;53.248;10.336;2022-12-29T00:54:16;5.17;;;3.93;;
7027;SDS011;3555;53.248;10.336;2022-12-29T00:56:45;4.50;;;3.63;;
7027;SDS011;3555;53.248;10.336;2022-12-29T00:59:12;4.57;;;3.30;;
7027;SDS011;3555;53.248;10.336;2022-12-29T01:01:41;4.23;;;3.20;;
7027;SDS011;3555;53.248;10.336;2022-12-29T01:04:08;4.13;;;2.90;;
7027;SDS011;3555;53.248;10.336;2022-12-29T01:06:36;5.83;;;3.60;;
7027;SDS011;3555;53.248;10.336;2022-12-29T01:09:04;3.63;;;3.00;;
7027;SDS011;3555;53.248;10.336;2022-12-29T01:11:49;3.87;;;3.00;;
7027;SDS011;3555;53.248;10.336;2022-12-29T01:14:16;3.27;;;2.83;;
7027;SDS011;3555;53.248;10.336;2022-12-29T01:16:46;5.97;;;3.03;;
7027;SDS011;3555;53.248;10.336;2022-12-29T01:19:13;4.73;;;3.03;;
7027;SDS011;3555;53.248;10.336;2022-12-29T01:21:41;3.53;;;3.00;;
7027;SDS011;3555;53.248;10.336;2022-12-29T01:24:08;3.50;;;3.20;;
7027;SDS011;3555;53.248;10.336;2022-12-29T01:26:35;5.57;;;3.20;;
7027;SDS011;3555;53.248;10.336;2022-12-29T01:29:02;3.13;;;2.80;;
7027;SDS011;3555;53.248;10.336;2022-12-29T01:31:29;3.50;;;2.70;;
7027;SDS011;3555;53.248;10.336;2022-12-29T01:33:57;3.07;;;2.50;;
7027;SDS011;3555;53.248;10.336;2022-12-29T01:36:24;2.77;;;2.53;;
7027;SDS011;3555;53.248;10.336;2022-12-29T01:38:51;4.67;;;2.53;;
7027;SDS011;3555;53.248;10.336;2022-12-29T01:41:18;2.80;;;2.40;;
7027;SDS011;3555;53.248;10.336;2022-12-29T01:43:46;3.13;;;2.37;;
7027;SDS011;3555;53.248;10.336;2022-12-29T01:46:16;3.77;;;2.40;;
7027;SDS011;3555;53.248;10.336;2022-12-29T01:48:49;4.67;;;2.27;;
7027;SDS011;3555;53.248;10.336;2022-12-29T01:51:20;3.10;;;2.20;;
7027;SDS011;3555;53.248;10.336;2022-12-29T01:53:49;4.33;;;2.40;;
7027;SDS011;3555;53.248;10.336;2022-12-29T01:56:17;3.27;;;2.30;;
7027;SDS011;3555;53.248;10.336;2022-12-29T01:58:47;3.13;;;2.17;;
7027;SDS011;3555;53.248;10.336;2022-12-29T02:01:15;3.47;;;2.30;;
7027;SDS011;3555;53.248;10.336;2022-12-29T02:03:45;2.43;;;2.03;;
7027;SDS011;3555;53.248;10.336;2022-12-29T02:06:14;3.23;;;2.37;;
7027;SDS011;3555;53.248;10.336;2022-12-29T02:08:47;2.73;;;2.00;;
7027;SDS011;3555;53.248;10.336;2022-12-29T02:11:16;3.63;;;2.33;;
7027;SDS011;3555;53.248;10.336;2022-12-29T02:13:44;2.23;;;2.03;;
7027;SDS011;3555;53.248;10.336;2022-12-29T02:16:14;2.43;;;2.10;;
7027;SDS011;3555;53.248;10.336;2022-12-29T02:19:06;2.80;;;2.50;;
7027;SDS011;3555;53.248;10.336;2022-12-29T02:21:54;2.60;;;2.30;;
7027;SDS011;3555;53.248;10.336;2022-12-29T02:27:48;2.80;;;2.13;;
7027;SDS011;3555;53.248;10.336;2022-12-29T02:30:46;3.63;;;1.93;;
7027;SDS011;3555;53.248;10.336;2022-12-29T02:33:23;4.37;;;2.30;;
7027;SDS011;3555;53.248;10.336;2022-12-29T02:36:01;4.13;;;2.43;;
7027;SDS011;3555;53.248;10.336;2022-12-29T02:38:41;2.40;;;2.20;;
7027;SDS011;3555;53.248;10.336;2022-12-29T02:41:16;2.87;;;2.13;;
7027;SDS011;3555;53.248;10.336;2022-12-29T02:43:48;2.80;;;2.20;;
7027;SDS011;3555;53.248;10.336;2022-12-29T02:46:21;2.77;;;2.30;;
7027;SDS011;3555;53.248;10.336;2022-12-29T02:48:54;2.47;;;2.03;;
7027;SDS011;3555;53.248;10.336;2022-12-29T02:51:27;3.10;;;2.50;;
7027;SDS011;3555;53.248;10.336;2022-12-29T02:53:58;3.00;;;2.40;;
7027;SDS011;3555;53.248;10.336;2022-12-29T02:56:43;2.90;;;2.27;;
7027;SDS011;3555;53.248;10.336;2022-12-29T02:59:10;3.83;;;1.83;;
7027;SDS011;3555;53.248;10.336;2022-12-29T03:01:43;2.90;;;1.90;;
7027;SDS011;3555;53.248;10.336;2022-12-29T03:04:37;2.03;;;1.70;;
7027;SDS011;3555;53.248;10.336;2022-12-29T03:07:12;3.00;;;1.70;;
7027;SDS011;3555;53.248;10.336;2022-12-29T03:09:48;1.67;;;1.40;;
7027;SDS011;3555;53.248;10.336;2022-12-29T03:12:23;2.20;;;1.73;;
7027;SDS011;3555;53.248;10.336;2022-12-29T03:15:15;2.40;;;1.87;;
7027;SDS011;3555;53.248;10.336;2022-12-29T03:18:09;3.23;;;1.60;;
7027;SDS011;3555;53.248;10.336;2022-12-29T03:20:41;3.03;;;1.70;;
7027;SDS011;3555;53.248;10.336;2022-12-29T03:23:15;2.30;;;1.67;;
7027;SDS011;3555;53.248;10.336;2022-12-29T03:25:43;1.87;;;1.30;;
7027;SDS011;3555;53.248;10.336;2022-12-29T03:28:16;2.53;;;1.77;;
7027;SDS011;3555;53.248;10.336;2022-12-29T03:30:45;1.47;;;1.30;;
7027;SDS011;3555;53.248;10.336;2022-12-29T03:33:15;3.27;;;1.50;;
7027;SDS011;3555;53.248;10.336;2022-12-29T03:35:47;2.80;;;1.27;;
7027;SDS011;3555;53.248;10.336;2022-12-29T03:38:17;1.93;;;1.43;;
7027;SDS011;3555;53.248;10.336;2022-12-29T03:40:48;1.50;;;1.17;;
7027;SDS011;3555;53.248;10.336;2022-12-29T03:43:18;1.57;;;1.40;;
7027;SDS011;3555;53.248;10.336;2022-12-29T03:45:45;1.90;;;1.63;;
7027;SDS011;3555;53.248;10.336;2022-12-29T03:48:12;1.50;;;1.20;;
7027;SDS011;3555;53.248;10.336;2022-12-29T03:50:41;3.07;;;1.40;;
7027;SDS011;3555;53.248;10.336;2022-12-29T03:53:08;1.80;;;1.23;;
7027;SDS011;3555;53.248;10.336;2022-12-29T03:55:34;2.77;;;1.27;;
7027;SDS011;3555;53.248;10.336;2022-12-29T03:58:01;1.57;;;1.40;;
7027;SDS011;3555;53.248;10.336;2022-12-29T04:00:28;1.37;;;1.00;;
7027;SDS011;3555;53.248;10.336;2022-12-29T04:02:55;1.40;;;1.30;;
7027;SDS011;3555;53.248;10.336;2022-12-29T04:05:23;2.00;;;1.47;;
7027;SDS011;3555;53.248;10.336;2022-12-29T04:07:50;2.87;;;1.60;;
7027;SDS011;3555;53.248;10.336;2022-12-29T04:10:17;2.37;;;1.50;;
7027;SDS011;3555;53.248;10.336;2022-12-29T04:12:44;2.73;;;1.40;;
7027;SDS011;3555;53.248;10.336;2022-12-29T04:15:12;2.20;;;1.40;;
7027;SDS011;3555;53.248;10.336;2022-12-29T04:17:39;1.97;;;1.43;;
7027;SDS011;3555;53.248;10.336;2022-12-29T04:20:06;1.60;;;1.30;;
7027;SDS011;3555;53.248;10.336;2022-12-29T04:22:58;1.80;;;1.40;;
7027;SDS011;3555;53.248;10.336;2022-12-29T04:25:25;1.70;;;1.30;;
7027;SDS011;3555;53.248;10.336;2022-12-29T04:27:52;1.53;;;1.20;;
7027;SDS011;3555;53.248;10.336;2022-12-29T04:30:19;1.60;;;1.30;;
7027;SDS011;3555;53.248;10.336;2022-12-29T04:32:46;2.77;;;1.53;;
7027;SDS011;3555;53.248;10.336;2022-12-29T04:35:13;1.30;;;1.20;;
7027;SDS011;3555;53.248;10.336;2022-12-29T04:37:40;1.50;;;1.20;;
7027;SDS011;3555;53.248;10.336;2022-12-29T04:40:09;2.60;;;1.23;;
7027;SDS011;3555;53.248;10.336;2022-12-29T04:42:37;2.07;;;1.50;;
7027;SDS011;3555;53.248;10.336;2022-12-29T04:45:04;1.77;;;1.27;;
7027;SDS011;3555;53.248;10.336;2022-12-29T04:47:31;1.83;;;1.50;;
7027;SDS011;3555;53.248;10.336;2022-12-29T04:49:58;2.23;;;1.40;;
7027;SDS011;3555;53.248;10.336;2022-12-29T04:52:25;2.73;;;1.40;;
7027;SDS011;3555;53.248;10.336;2022-12-29T04:54:52;2.17;;;1.67;;
7027;SDS011;3555;53.248;10.336;2022-12-29T04:57:20;2.00;;;1.60;;
7027;SDS011;3555;53.248;10.336;2022-12-29T04:59:47;3.33;;;1.50;;
7027;SDS011;3555;53.248;10.336;2022-12-29T05:02:15;1.77;;;1.30;;
7027;SDS011;3555;53.248;10.336;2022-12-29T05:04:42;1.60;;;1.50;;
7027;SDS011;3555;53.248;10.336;2022-12-29T05:07:09;2.97;;;1.60;;
7027;SDS011;3555;53.248;10.336;2022-12-29T05:09:36;1.67;;;1.50;;
7027;SDS011;3555;53.248;10.336;2022-12-29T05:12:03;2.63;;;1.40;;
7027;SDS011;3555;53.248;10.336;2022-12-29T05:14:32;1.77;;;1.50;;
7027;SDS011;3555;53.248;10.336;2022-12-29T05:16:58;1.70;;;1.40;;
7027;SDS011;3555;53.248;10.336;2022-12-29T05:19:25;1.70;;;1.53;;
7027;SDS011;3555;53.248;10.336;2022-12-29T05:21:52;2.67;;;2.00;;
7027;SDS011;3555;53.248;10.336;2022-12-29T05:24:19;3.03;;;1.50;;
7027;SDS011;3555;53.248;10.336;2022-12-29T05:26:46;1.87;;;1.60;;
7027;SDS011;3555;53.248;10.336;2022-12-29T05:29:13;2.63;;;1.60;;
7027;SDS011;3555;53.248;10.336;2022-12-29T05:31:41;2.57;;;1.47;;
7027;SDS011;3555;53.248;10.336;2022-12-29T05:34:09;2.20;;;1.87;;
7027;SDS011;3555;53.248;10.336;2022-12-29T05:36:37;2.60;;;1.40;;
7027;SDS011;3555;53.248;10.336;2022-12-29T05:39:04;1.70;;;1.30;;
7027;SDS011;3555;53.248;10.336;2022-12-29T05:41:32;2.03;;;1.53;;
7027;SDS011;3555;53.248;10.336;2022-12-29T05:43:59;3.20;;;1.73;;
7027;SDS011;3555;53.248;10.336;2022-12-29T05:46:26;3.30;;;2.13;;
7027;SDS011;3555;53.248;10.336;2022-12-29T05:48:54;4.00;;;2.00;;
7027;SDS011;3555;53.248;10.336;2022-12-29T05:51:21;3.53;;;2.03;;
7027;SDS011;3555;53.248;10.336;2022-12-29T05:53:48;2.20;;;1.70;;
7027;SDS011;3555;53.248;10.336;2022-12-29T05:56:15;2.60;;;2.00;;
7027;SDS011;3555;53.248;10.336;2022-12-29T05:58:42;2.83;;;1.60;;
7027;SDS011;3555;53.248;10.336;2022-12-29T06:01:09;3.93;;;2.37;;
7027;SDS011;3555;53.248;10.336;2022-12-29T06:03:36;2.73;;;1.70;;
7027;SDS011;3555;53.248;10.336;2022-12-29T06:06:05;3.27;;;2.13;;
7027;SDS011;3555;53.248;10.336;2022-12-29T06:08:32;1.60;;;1.43;;
7027;SDS011;3555;53.248;10.336;2022-12-29T06:10:59;1.77;;;1.40;;
7027;SDS011;3555;53.248;10.336;2022-12-29T06:13:26;2.67;;;1.60;;
7027;SDS011;3555;53.248;10.336;2022-12-29T06:15:53;2.13;;;1.20;;
7027;SDS011;3555;53.248;10.336;2022-12-29T06:18:20;1.87;;;1.30;;
7027;SDS011;3555;53.248;10.336;2022-12-29T06:20:47;1.43;;;1.27;;
7027;SDS011;3555;53.248;10.336;2022-12-29T06:23:15;1.70;;;1.30;;
7027;SDS011;3555;53.248;10.336;2022-12-29T06:25:43;1.57;;;1.30;;
7027;SDS011;3555;53.248;10.336;2022-12-29T06:28:10;2.10;;;1.20;;
7027;SDS011;3555;53.248;10.336;2022-12-29T06:30:37;2.23;;;1.20;;
7027;SDS011;3555;53.248;10.336;2022-12-29T06:33:04;1.53;;;1.10;;
7027;SDS011;3555;53.248;10.336;2022-12-29T06:35:33;1.47;;;1.33;;
7027;SDS011;3555;53.248;10.336;2022-12-29T06:38:00;2.77;;;1.03;;
7027;SDS011;3555;53.248;10.336;2022-12-29T06:40:28;2.27;;;1.00;;
7027;SDS011;3555;53.248;10.336;2022-12-29T06:42:55;1.30;;;0.90;;
7027;SDS011;3555;53.248;10.336;2022-12-29T06:45:22;3.17;;;1.40;;
7027;SDS011;3555;53.248;10.336;2022-12-29T06:47:49;1.63;;;1.27;;
7027;SDS011;3555;53.248;10.336;2022-12-29T06:50:15;1.20;;;0.80;;
7027;SDS011;3555;53.248;10.336;2022-12-29T06:52:42;2.20;;;0.97;;
7027;SDS011;3555;53.248;10.336;2022-12-29T06:55:09;1.37;;;1.17;;
7027;SDS011;3555;53.248;10.336;2022-12-29T06:57:37;1.47;;;1.00;;
7027;SDS011;3555;53.248;10.336;2022-12-29T07:00:05;1.80;;;1.10;;
7027;SDS011;3555;53.248;10.336;2022-12-29T07:02:32;2.70;;;0.90;;
7027;SDS011;3555;53.248;10.336;2022-12-29T07:04:59;3.20;;;0.93;;
7027;SDS011;3555;53.248;10.336;2022-12-29T07:07:26;2.47;;;1.20;;
7027;SDS011;3555;53.248;10.336;2022-12-29T07:09:53;1.07;;;0.90;;
7027;SDS011;3555;53.248;10.336;2022-12-29T07:12:20;1.93;;;1.10;;
7027;SDS011;3555;53.248;10.336;2022-12-29T07:14:48;1.20;;;0.80;;
7027;SDS011;3555;53.248;10.336;2022-12-29T07:17:15;1.93;;;0.90;;
7027;SDS011;3555;53.248;10.336;2022-12-29T07:19:42;1.10;;;0.90;;
7027;SDS011;3555;53.248;10.336;2022-12-29T07:22:09;1.27;;;1.07;;
7027;SDS011;3555;53.248;10.336;2022-12-29T07:24:36;2.17;;;1.10;;
7027;SDS011;3555;53.248;10.336;2022-12-29T07:27:03;1.30;;;0.90;;
7027;SDS011;3555;53.248;10.336;2022-12-29T07:29:30;2.50;;;0.80;;
7027;SDS011;3555;53.248;10.336;2022-12-29T07:31:58;1.10;;;0.93;;
7027;SDS011;3555;53.248;10.336;2022-12-29T07:34:25;2.10;;;0.80;;
7027;SDS011;3555;53.248;10.336;2022-12-29T07:36:52;1.10;;;0.77;;
7027;SDS011;3555;53.248;10.336;2022-12-29T07:39:19;2.00;;;0.90;;
7027;SDS011;3555;53.248;10.336;2022-12-29T07:41:46;1.20;;;0.87;;
7027;SDS011;3555;53.248;10.336;2022-12-29T07:44:13;1.10;;;0.80;;
7027;SDS011;3555;53.248;10.336;2022-12-29T07:46:39;0.90;;;0.80;;
7027;SDS011;3555;53.248;10.336;2022-12-29T07:49:08;2.30;;;0.80;;
7027;SDS011;3555;53.248;10.336;2022-12-29T07:51:34;1.87;;;0.90;;
7027;SDS011;3555;53.248;10.336;2022-12-29T07:54:02;1.23;;;0.80;;
7027;SDS011;3555;53.248;10.336;2022-12-29T07:56:29;3.97;;;0.90;;
7027;SDS011;3555;53.248;10.336;2022-12-29T07:58:56;2.33;;;0.83;;
7027;SDS011;3555;53.248;10.336;2022-12-29T08:01:22;1.90;;;0.97;;
7027;SDS011;3555;53.248;10.336;2022-12-29T08:03:49;1.07;;;0.90;;
7027;SDS011;3555;53.248;10.336;2022-12-29T08:06:17;1.43;;;0.80;;
7027;SDS011;3555;53.248;10.336;2022-12-29T08:08:45;2.27;;;1.00;;
7027;SDS011;3555;53.248;10.336;2022-12-29T08:11:11;1.53;;;0.90;;
7027;SDS011;3555;53.248;10.336;2022-12-29T08:13:38;0.90;;;0.70;;
7027;SDS011;3555;53.248;10.336;2022-12-29T08:16:05;0.83;;;0.80;;
7027;SDS011;3555;53.248;10.336;2022-12-29T08:18:32;3.17;;;0.93;;
7027;SDS011;3555;53.248;10.336;2022-12-29T08:21:01;0.80;;;0.70;;
7027;SDS011;3555;53.248;10.336;2022-12-29T08:23:30;0.97;;;0.77;;
7027;SDS011;3555;53.248;10.336;2022-12-29T08:25:57;3.17;;;0.87;;
7027;SDS011;3555;53.248;10.336;2022-12-29T08:28:25;1.47;;;0.80;;
7027;SDS011;3555;53.248;10.336;2022-12-29T08:30:52;1.47;;;0.80;;
7027;SDS011;3555;53.248;10.336;2022-12-29T08:33:19;2.40;;;1.13;;
7027;SDS011;3555;53.248;10.336;2022-12-29T08:35:45;0.90;;;0.63;;
7027;SDS011;3555;53.248;10.336;2022-12-29T08:38:12;1.10;;;0.77;;
7027;SDS011;3555;53.248;10.336;2022-12-29T08:40:40;2.20;;;0.70;;
7027;SDS011;3555;53.248;10.336;2022-12-29T08:43:07;1.17;;;0.70;;
7027;SDS011;3555;53.248;10.336;2022-12-29T08:45:34;2.90;;;0.80;;
7027;SDS011;3555;53.248;10.336;2022-12-29T08:48:01;1.73;;;0.80;;
7027;SDS011;3555;53.248;10.336;2022-12-29T08:50:28;2.37;;;1.00;;
7027;SDS011;3555;53.248;10.336;2022-12-29T08:52:55;1.43;;;0.70;;
7027;SDS011;3555;53.248;10.336;2022-12-29T08:55:22;2.80;;;0.90;;
7027;SDS011;3555;53.248;10.336;2022-12-29T08:57:50;1.67;;;0.83;;
7027;SDS011;3555;53.248;10.336;2022-12-29T09:00:17;1.67;;;0.67;;
7027;SDS011;3555;53.248;10.336;2022-12-29T09:02:45;1.37;;;0.80;;
7027;SDS011;3555;53.248;10.336;2022-12-29T09:05:12;1.77;;;0.70;;
7027;SDS011;3555;53.248;10.336;2022-12-29T09:07:39;2.30;;;0.90;;
7027;SDS011;3555;53.248;10.336;2022-12-29T09:10:06;2.70;;;0.90;;
7027;SDS011;3555;53.248;10.336;2022-12-29T09:12:33;1.50;;;0.83;;
7027;SDS011;3555;53.248;10.336;2022-12-29T09:15:01;2.60;;;1.00;;
7027;SDS011;3555;53.248;10.336;2022-12-29T09:17:29;2.00;;;1.13;;
7027;SDS011;3555;53.248;10.336;2022-12-29T09:20:09;1.60;;;0.87;;
7027;SDS011;3555;53.248;10.336;2022-12-29T09:22:36;1.00;;;0.70;;
7027;SDS011;3555;53.248;10.336;2022-12-29T09:25:03;3.27;;;0.80;;
7027;SDS011;3555;53.248;10.336;2022-12-29T09:27:31;3.27;;;1.10;;
7027;SDS011;3555;53.248;10.336;2022-12-29T09:29:58;2.27;;;0.87;;
7027;SDS011;3555;53.248;10.336;2022-12-29T09:32:26;1.57;;;0.80;;
7027;SDS011;3555;53.248;10.336;2022-12-29T09:34:53;3.80;;;0.70;;
7027;SDS011;3555;53.248;10.336;2022-12-29T09:37:20;3.13;;;0.70;;
7027;SDS011;3555;53.248;10.336;2022-12-29T09:39:46;2.53;;;0.70;;
7027;SDS011;3555;53.248;10.336;2022-12-29T09:42:15;2.77;;;0.80;;
7027;SDS011;3555;53.248;10.336;2022-12-29T09:44:48;1.37;;;0.70;;
7027;SDS011;3555;53.248;10.336;2022-12-29T09:47:21;2.97;;;0.80;;
7027;SDS011;3555;53.248;10.336;2022-12-29T09:49:53;2.20;;;0.80;;
7027;SDS011;3555;53.248;10.336;2022-12-29T09:52:22;1.90;;;1.00;;
7027;SDS011;3555;53.248;10.336;2022-12-29T09:54:55;2.40;;;1.10;;
7027;SDS011;3555;53.248;10.336;2022-12-29T09:57:24;3.10;;;0.97;;
7027;SDS011;3555;53.248;10.336;2022-12-29T09:59:55;5.87;;;1.13;;
7027;SDS011;3555;53.248;10.336;2022-12-29T10:02:33;2.87;;;1.03;;
7027;SDS011;3555;53.248;10.336;2022-12-29T10:05:12;2.87;;;0.90;;
7027;SDS011;3555;53.248;10.336;2022-12-29T10:07:45;5.03;;;1.10;;
7027;SDS011;3555;53.248;10.336;2022-12-29T10:10:23;4.00;;;1.00;;
7027;SDS011;3555;53.248;10.336;2022-12-29T10:13:00;2.90;;;1.00;;
7027;SDS011;3555;53.248;10.336;2022-12-29T10:15:38;2.27;;;1.00;;
7027;SDS011;3555;53.248;10.336;2022-12-29T10:18:16;3.37;;;1.10;;
7027;SDS011;3555;53.248;10.336;2022-12-29T10:20:52;6.17;;;1.40;;
7027;SDS011;3555;53.248;10.336;2022-12-29T10:23:27;2.80;;;0.83;;
7027;SDS011;3555;53.248;10.336;2022-12-29T10:25:58;4.13;;;1.10;;
7027;SDS011;3555;53.248;10.336;2022-12-29T10:28:31;3.77;;;1.03;;
7027;SDS011;3555;53.248;10.336;2022-12-29T10:31:01;6.73;;;1.50;;
7027;SDS011;3555;53.248;10.336;2022-12-29T10:33:35;3.13;;;1.13;;
7027;SDS011;3555;53.248;10.336;2022-12-29T10:36:12;4.20;;;0.97;;
7027;SDS011;3555;53.248;10.336;2022-12-29T10:38:45;4.13;;;1.07;;
7027;SDS011;3555;53.248;10.336;2022-12-29T10:41:18;2.00;;;0.90;;
7027;SDS011;3555;53.248;10.336;2022-12-29T10:43:50;3.57;;;1.10;;
7027;SDS011;3555;53.248;10.336;2022-12-29T10:46:19;4.27;;;1.10;;
7027;SDS011;3555;53.248;10.336;2022-12-29T10:48:49;4.03;;;1.00;;
7027;SDS011;3555;53.248;10.336;2022-12-29T10:51:18;4.53;;;1.70;;
7027;SDS011;3555;53.248;10.336;2022-12-29T10:53:49;5.67;;;1.17;;
7027;SDS011;3555;53.248;10.336;2022-12-29T10:56:21;3.30;;;1.10;;
7027;SDS011;3555;53.248;10.336;2022-12-29T10:58:58;3.40;;;0.90;;
7027;SDS011;3555;53.248;10.336;2022-12-29T11:01:32;3.67;;;1.10;;
7027;SDS011;3555;53.248;10.336;2022-12-29T11:04:04;3.20;;;1.17;;
7027;SDS011;3555;53.248;10.336;2022-12-29T11:06:41;3.87;;;1.03;;
7027;SDS011;3555;53.248;10.336;2022-12-29T11:09:10;3.00;;;1.10;;
7027;SDS011;3555;53.248;10.336;2022-12-29T11:11:41;4.73;;;1.10;;
7027;SDS011;3555;53.248;10.336;2022-12-29T11:14:11;6.33;;;1.53;;
7027;SDS011;3555;53.248;10.336;2022-12-29T11:16:39;2.77;;;1.20;;
7027;SDS011;3555;53.248;10.336;2022-12-29T11:19:19;4.50;;;1.20;;
7027;SDS011;3555;53.248;10.336;2022-12-29T11:21:48;4.47;;;1.20;;
7027;SDS011;3555;53.248;10.336;2022-12-29T11:24:19;4.93;;;1.20;;
7027;SDS011;3555;53.248;10.336;2022-12-29T11:26:49;3.67;;;1.00;;
7027;SDS011;3555;53.248;10.336;2022-12-29T11:29:22;4.03;;;1.20;;
7027;SDS011;3555;53.248;10.336;2022-12-29T11:31:51;3.57;;;1.00;;
7027;SDS011;3555;53.248;10.336;2022-12-29T11:34:20;5.87;;;1.10;;
7027;SDS011;3555;53.248;10.336;2022-12-29T11:36:52;2.83;;;1.00;;
7027;SDS011;3555;53.248;10.336;2022-12-29T11:39:28;5.43;;;1.80;;
7027;SDS011;3555;53.248;10.336;2022-12-29T11:41:58;3.23;;;1.13;;
7027;SDS011;3555;53.248;10.336;2022-12-29T11:44:27;3.30;;;1.03;;
7027;SDS011;3555;53.248;10.336;2022-12-29T11:46:59;3.37;;;1.00;;
7027;SDS011;3555;53.248;10.336;2022-12-29T11:49:26;4.03;;;1.23;;
7027;SDS011;3555;53.248;10.336;2022-12-29T11:51:54;4.77;;;1.33;;
7027;SDS011;3555;53.248;10.336;2022-12-29T11:54:23;4.90;;;1.30;;
7027;SDS011;3555;53.248;10.336;2022-12-29T11:56:52;5.60;;;1.63;;
7027;SDS011;3555;53.248;10.336;2022-12-29T11:59:36;2.27;;;1.07;;
7027;SDS011;3555;53.248;10.336;2022-12-29T12:05:20;2.87;;;0.93;;
7027;SDS011;3555;53.248;10.336;2022-12-29T12:07:54;5.70;;;1.27;;
7027;SDS011;3555;53.248;10.336;2022-12-29T12:10:27;3.50;;;0.97;;
7027;SDS011;3555;53.248;10.336;2022-12-29T12:12:59;4.30;;;1.20;;
7027;SDS011;3555;53.248;10.336;2022-12-29T12:15:34;5.03;;;1.57;;
7027;SDS011;3555;53.248;10.336;2022-12-29T12:18:05;5.77;;;1.23;;
7027;SDS011;3555;53.248;10.336;2022-12-29T12:20:38;2.13;;;1.23;;
7027;SDS011;3555;53.248;10.336;2022-12-29T12:23:17;4.87;;;1.60;;
7027;SDS011;3555;53.248;10.336;2022-12-29T12:25:54;4.53;;;1.27;;
7027;SDS011;3555;53.248;10.336;2022-12-29T12:28:26;8.60;;;2.43;;
7027;SDS011;3555;53.248;10.336;2022-12-29T12:31:02;6.93;;;1.50;;
7027;SDS011;3555;53.248;10.336;2022-12-29T12:33:41;4.03;;;1.23;;
7027;SDS011;3555;53.248;10.336;2022-12-29T12:36:15;4.40;;;1.47;;
7027;SDS011;3555;53.248;10.336;2022-12-29T12:39:00;5.27;;;1.37;;
7027;SDS011;3555;53.248;10.336;2022-12-29T12:41:35;7.00;;;1.50;;
7027;SDS011;3555;53.248;10.336;2022-12-29T12:44:19;6.07;;;1.53;;
7027;SDS011;3555;53.248;10.336;2022-12-29T12:49:58;3.17;;;1.20;;
7027;SDS011;3555;53.248;10.336;2022-12-29T12:52:49;6.00;;;1.40;;
7027;SDS011;3555;53.248;10.336;2022-12-29T12:55:41;4.07;;;1.10;;
7027;SDS011;3555;53.248;10.336;2022-12-29T12:58:18;3.73;;;1.17;;
7027;SDS011;3555;53.248;10.336;2022-12-29T13:00:50;2.87;;;1.10;;
7027;SDS011;3555;53.248;10.336;2022-12-29T13:03:27;4.40;;;1.00;;
7027;SDS011;3555;53.248;10.336;2022-12-29T13:06:07;5.63;;;1.30;;
7027;SDS011;3555;53.248;10.336;2022-12-29T13:08:48;4.70;;;1.27;;
7027;SDS011;3555;53.248;10.336;2022-12-29T13:11:42;5.43;;;1.30;;
7027;SDS011;3555;53.248;10.336;2022-12-29T13:14:23;6.63;;;1.67;;
7027;SDS011;3555;53.248;10.336;2022-12-29T13:16:59;4.43;;;1.20;;
7027;SDS011;3555;53.248;10.336;2022-12-29T13:19:34;5.00;;;1.47;;
7027;SDS011;3555;53.248;10.336;2022-12-29T13:22:08;3.17;;;1.10;;
7027;SDS011;3555;53.248;10.336;2022-12-29T13:24:47;4.27;;;1.97;;
7027;SDS011;3555;53.248;10.336;2022-12-29T13:27:23;4.50;;;1.20;;
7027;SDS011;3555;53.248;10.336;2022-12-29T13:29:57;4.70;;;1.20;;
7027;SDS011;3555;53.248;10.336;2022-12-29T13:32:33;3.43;;;1.40;;
7027;SDS011;3555;53.248;10.336;2022-12-29T13:35:17;4.10;;;1.60;;
7027;SDS011;3555;53.248;10.336;2022-12-29T13:37:53;7.03;;;1.47;;
7027;SDS011;3555;53.248;10.336;2022-12-29T13:40:23;4.50;;;1.67;;
7027;SDS011;3555;53.248;10.336;2022-12-29T13:42:53;5.47;;;1.20;;
7027;SDS011;3555;53.248;10.336;2022-12-29T13:45:22;4.37;;;1.50;;
7027;SDS011;3555;53.248;10.336;2022-12-29T13:47:53;2.47;;;0.93;;
7027;SDS011;3555;53.248;10.336;2022-12-29T13:50:25;3.83;;;1.30;;
7027;SDS011;3555;53.248;10.336;2022-12-29T13:52:55;4.00;;;1.20;;
7027;SDS011;3555;53.248;10.336;2022-12-29T13:55:30;4.03;;;1.30;;
7027;SDS011;3555;53.248;10.336;2022-12-29T13:58:04;2.93;;;1.37;;
7027;SDS011;3555;53.248;10.336;2022-12-29T14:00:43;3.23;;;1.20;;
7027;SDS011;3555;53.248;10.336;2022-12-29T14:06:22;3.40;;;1.10;;
7027;SDS011;3555;53.248;10.336;2022-12-29T14:08:52;6.57;;;2.03;;
7027;SDS011;3555;53.248;10.336;2022-12-29T14:11:22;2.77;;;0.90;;
7027;SDS011;3555;53.248;10.336;2022-12-29T14:13:55;4.80;;;0.87;;
7027;SDS011;3555;53.248;10.336;2022-12-29T14:16:27;3.47;;;1.20;;
7027;SDS011;3555;53.248;10.336;2022-12-29T14:18:56;3.83;;;1.07;;
7027;SDS011;3555;53.248;10.336;2022-12-29T14:21:32;2.30;;;0.90;;
7027;SDS011;3555;53.248;10.336;2022-12-29T14:30:06;2.63;;;1.07;;
7027;SDS011;3555;53.248;10.336;2022-12-29T14:33:12;1.60;;;1.00;;
7027;SDS011;3555;53.248;10.336;2022-12-29T14:35:40;4.73;;;1.10;;
7027;SDS011;3555;53.248;10.336;2022-12-29T14:38:22;4.00;;;1.27;;
7027;SDS011;3555;53.248;10.336;2022-12-29T14:43:51;3.17;;;1.00;;
7027;SDS011;3555;53.248;10.336;2022-12-29T14:46:23;3.47;;;1.10;;
7027;SDS011;3555;53.248;10.336;2022-12-29T14:48:54;2.10;;;0.83;;
7027;SDS011;3555;53.248;10.336;2022-12-29T14:51:28;3.13;;;1.03;;
7027;SDS011;3555;53.248;10.336;2022-12-29T14:56:58;3.93;;;1.03;;
7027;SDS011;3555;53.248;10.336;2022-12-29T14:59:27;2.47;;;0.90;;
7027;SDS011;3555;53.248;10.336;2022-12-29T15:01:57;4.13;;;1.00;;
7027;SDS011;3555;53.248;10.336;2022-12-29T15:04:28;2.97;;;1.00;;
7027;SDS011;3555;53.248;10.336;2022-12-29T15:06:57;4.87;;;1.20;;
7027;SDS011;3555;53.248;10.336;2022-12-29T15:09:29;6.10;;;0.97;;
7027;SDS011;3555;53.248;10.336;2022-12-29T15:12:01;5.00;;;1.27;;
7027;SDS011;3555;53.248;10.336;2022-12-29T15:14:38;1.87;;;0.90;;
7027;SDS011;3555;53.248;10.336;2022-12-29T15:17:23;3.20;;;0.93;;
7027;SDS011;3555;53.248;10.336;2022-12-29T15:19:53;4.90;;;1.23;;
7027;SDS011;3555;53.248;10.336;2022-12-29T15:22:21;3.93;;;1.10;;
7027;SDS011;3555;53.248;10.336;2022-12-29T15:24:49;2.20;;;1.23;;
7027;SDS011;3555;53.248;10.336;2022-12-29T15:27:19;2.70;;;1.17;;
7027;SDS011;3555;53.248;10.336;2022-12-29T15:29:47;3.17;;;0.90;;
7027;SDS011;3555;53.248;10.336;2022-12-29T15:32:23;3.10;;;1.27;;
7027;SDS011;3555;53.248;10.336;2022-12-29T15:34:51;5.60;;;1.13;;
7027;SDS011;3555;53.248;10.336;2022-12-29T15:37:21;3.53;;;1.23;;
7027;SDS011;3555;53.248;10.336;2022-12-29T15:39:49;2.90;;;1.23;;
7027;SDS011;3555;53.248;10.336;2022-12-29T15:42:26;4.90;;;1.00;;
7027;SDS011;3555;53.248;10.336;2022-12-29T15:45:06;3.93;;;1.43;;
7027;SDS011;3555;53.248;10.336;2022-12-29T15:47:38;5.83;;;1.50;;
7027;SDS011;3555;53.248;10.336;2022-12-29T15:50:06;5.57;;;1.40;;